sensor_id;sensor_type;location;lat;lon;timestamp;pressure;altitude;pressure_sealevel;temperature;humidity
70015;BME280;57358;51.094;6.760;2023-08-08T00:01:25;100883.66;;;12.81;100.00
70015;BME280;57358;51.094;6.760;2023-08-08T00:03:51;100877.00;;;12.75;100.00
70015;BME280;57358;51.094;6.760;2023-08-08T00:06:17;100867.91;;;12.65;100.00
70015;BME280;57358;51.094;6.760;2023-08-08T00:08:44;100795.88;;;12.21;100.00
70015;BME280;57358;51.094;6.760;2023-08-08T00:11:10;100868.53;;;12.54;100.00
70015;BME280;57358;51.094;6.760;2023-08-08T00:13:37;100831.59;;;12.25;100.00
70015;BME280;57358;51.094;6.760;2023-08-08T00:16:03;100851.34;;;12.32;100.00
70015;BME280;57358;51.094;6.760;2023-08-08T00:18:31;100746.34;;;11.66;100.00
70015;BME280;57358;51.094;6.760;2023-08-08T00:20:57;100921.16;;;12.70;100.00
70015;BME280;57358;51.094;6.760;2023-08-08T00:23:24;100895.81;;;12.53;100.00
70015;BME280;57358;51.094;6.760;2023-08-08T00:25:50;100855.00;;;12.30;100.00
70015;BME280;57358;51.094;6.760;2023-08-08T00:28:17;100911.91;;;12.63;100.00
70015;BME280;57358;51.094;6.760;2023-08-08T00:30:44;100873.50;;;12.28;100.00
70015;BME280;57358;51.094;6.760;2023-08-08T00:33:10;100913.97;;;12.57;100.00
70015;BME280;57358;51.094;6.760;2023-08-08T00:35:37;100912.38;;;12.55;100.00
70015;BME280;57358;51.094;6.760;2023-08-08T00:38:04;100842.47;;;12.03;100.00
70015;BME280;57358;51.094;6.760;2023-08-08T00:40:30;100885.81;;;12.28;100.00
70015;BME280;57358;51.094;6.760;2023-08-08T00:42:56;100875.16;;;12.15;100.00
70015;BME280;57358;51.094;6.760;2023-08-08T00:45:23;100875.03;;;12.16;100.00
70015;BME280;57358;51.094;6.760;2023-08-08T00:47:50;100906.25;;;12.38;100.00
70015;BME280;57358;51.094;6.760;2023-08-08T00:50:16;100903.47;;;12.42;100.00
70015;BME280;57358;51.094;6.760;2023-08-08T00:52:44;100923.00;;;12.37;100.00
70015;BME280;57358;51.094;6.760;2023-08-08T00:55:11;100813.59;;;11.70;100.00
70015;BME280;57358;51.094;6.760;2023-08-08T00:57:38;100786.47;;;11.53;100.00
70015;BME280;57358;51.094;6.760;2023-08-08T01:00:06;100891.09;;;12.12;100.00
70015;BME280;57358;51.094;6.760;2023-08-08T01:02:33;100783.41;;;11.45;100.00
70015;BME280;57358;51.094;6.760;2023-08-08T01:05:00;100921.63;;;12.30;100.00
70015;BME280;57358;51.094;6.760;2023-08-08T01:09:59;100929.19;;;12.36;100.00
70015;BME280;57358;51.094;6.760;2023-08-08T01:12:30;100858.84;;;11.92;100.00
70015;BME280;57358;51.094;6.760;2023-08-08T01:14:57;100929.94;;;12.38;100.00
70015;BME280;57358;51.094;6.760;2023-08-08T01:17:25;100834.13;;;11.79;100.00
70015;BME280;57358;51.094;6.760;2023-08-08T01:19:52;100931.16;;;12.49;100.00
70015;BME280;57358;51.094;6.760;2023-08-08T01:22:25;100829.28;;;11.87;100.00
70015;BME280;57358;51.094;6.760;2023-08-08T01:24:54;100887.75;;;12.24;100.00
70015;BME280;57358;51.094;6.760;2023-08-08T01:27:21;100923.41;;;12.46;100.00
70015;BME280;57358;51.094;6.760;2023-08-08T01:29:48;100854.19;;;11.97;100.00
70015;BME280;57358;51.094;6.760;2023-08-08T01:32:14;100781.81;;;11.43;100.00
70015;BME280;57358;51.094;6.760;2023-08-08T01:34:41;100910.44;;;12.27;100.00
70015;BME280;57358;51.094;6.760;2023-08-08T01:37:17;100922.56;;;12.29;100.00
70015;BME280;57358;51.094;6.760;2023-08-08T01:39:45;100878.13;;;11.93;100.00
70015;BME280;57358;51.094;6.760;2023-08-08T01:42:14;100895.09;;;12.03;100.00
70015;BME280;57358;51.094;6.760;2023-08-08T01:44:41;100915.88;;;12.24;100.00
70015;BME280;57358;51.094;6.760;2023-08-08T01:47:08;100912.22;;;12.26;100.00
70015;BME280;57358;51.094;6.760;2023-08-08T01:49:35;100915.88;;;12.24;100.00
70015;BME280;57358;51.094;6.760;2023-08-08T01:52:01;100827.34;;;11.59;100.00
70015;BME280;57358;51.094;6.760;2023-08-08T01:54:28;100893.72;;;11.96;100.00
70015;BME280;57358;51.094;6.760;2023-08-08T01:56:54;100795.94;;;11.40;100.00
70015;BME280;57358;51.094;6.760;2023-08-08T01:59:21;100800.78;;;11.48;100.00
70015;BME280;57358;51.094;6.760;2023-08-08T02:01:47;100914.84;;;12.10;100.00
70015;BME280;57358;51.094;6.760;2023-08-08T02:04:14;100867.63;;;11.75;100.00
70015;BME280;57358;51.094;6.760;2023-08-08T02:06:40;100912.13;;;12.12;100.00
70015;BME280;57358;51.094;6.760;2023-08-08T02:09:07;100870.06;;;11.78;100.00
70015;BME280;57358;51.094;6.760;2023-08-08T02:11:33;100923.16;;;12.18;100.00
70015;BME280;57358;51.094;6.760;2023-08-08T02:14:00;100851.00;;;11.75;100.00
70015;BME280;57358;51.094;6.760;2023-08-08T02:16:26;100914.00;;;12.10;100.00
70015;BME280;57358;51.094;6.760;2023-08-08T02:18:53;100854.22;;;11.80;100.00
70015;BME280;57358;51.094;6.760;2023-08-08T02:21:19;100903.75;;;12.21;100.00
70015;BME280;57358;51.094;6.760;2023-08-08T02:23:45;100788.06;;;11.56;100.00
70015;BME280;57358;51.094;6.760;2023-08-08T02:26:12;100855.00;;;12.14;100.00
70015;BME280;57358;51.094;6.760;2023-08-08T02:28:38;100812.56;;;11.88;100.00
70015;BME280;57358;51.094;6.760;2023-08-08T02:31:05;100793.25;;;11.73;100.00
70015;BME280;57358;51.094;6.760;2023-08-08T02:33:31;100822.69;;;11.96;100.00
70015;BME280;57358;51.094;6.760;2023-08-08T02:35:57;100821.16;;;11.92;100.00
70015;BME280;57358;51.094;6.760;2023-08-08T02:38:24;100857.84;;;12.11;100.00
70015;BME280;57358;51.094;6.760;2023-08-08T02:40:50;100835.94;;;11.94;100.00
70015;BME280;57358;51.094;6.760;2023-08-08T02:43:17;100892.69;;;12.30;100.00
70015;BME280;57358;51.094;6.760;2023-08-08T02:45:43;100673.97;;;10.96;100.00
70015;BME280;57358;51.094;6.760;2023-08-08T02:48:10;100758.66;;;11.49;100.00
70015;BME280;57358;51.094;6.760;2023-08-08T02:50:36;100794.09;;;11.74;100.00
70015;BME280;57358;51.094;6.760;2023-08-08T02:53:03;100828.16;;;11.93;100.00
70015;BME280;57358;51.094;6.760;2023-08-08T02:55:29;100792.06;;;11.63;100.00
70015;BME280;57358;51.094;6.760;2023-08-08T02:57:56;100825.97;;;11.84;100.00
70015;BME280;57358;51.094;6.760;2023-08-08T03:00:22;100891.09;;;12.12;100.00
70015;BME280;57358;51.094;6.760;2023-08-08T03:02:49;100877.16;;;12.10;100.00
70015;BME280;57358;51.094;6.760;2023-08-08T03:05:15;100849.56;;;11.85;100.00
70015;BME280;57358;51.094;6.760;2023-08-08T03:07:42;100867.25;;;11.99;100.00
70015;BME280;57358;51.094;6.760;2023-08-08T03:10:08;100800.97;;;11.61;100.00
70015;BME280;57358;51.094;6.760;2023-08-08T03:12:35;100734.56;;;11.25;100.00
70015;BME280;57358;51.094;6.760;2023-08-08T03:15:04;100810.63;;;11.60;100.00
70015;BME280;57358;51.094;6.760;2023-08-08T03:17:31;100868.34;;;11.95;100.00
70015;BME280;57358;51.094;6.760;2023-08-08T03:19:57;100859.03;;;11.89;100.00
70015;BME280;57358;51.094;6.760;2023-08-08T03:22:24;100713.78;;;11.05;100.00
70015;BME280;57358;51.094;6.760;2023-08-08T03:24:50;100806.38;;;11.57;100.00
70015;BME280;57358;51.094;6.760;2023-08-08T03:27:17;100728.84;;;11.01;100.00
70015;BME280;57358;51.094;6.760;2023-08-08T03:29:43;100820.44;;;11.56;100.00
70015;BME280;57358;51.094;6.760;2023-08-08T03:32:09;100867.97;;;11.85;100.00
70015;BME280;57358;51.094;6.760;2023-08-08T03:34:36;100890.94;;;11.99;100.00
70015;BME280;57358;51.094;6.760;2023-08-08T03:37:02;100828.25;;;11.58;100.00
70015;BME280;57358;51.094;6.760;2023-08-08T03:39:29;100731.31;;;11.04;100.00
70015;BME280;57358;51.094;6.760;2023-08-08T03:41:55;100556.75;;;9.97;100.00
70015;BME280;57358;51.094;6.760;2023-08-08T03:44:22;100813.06;;;11.47;100.00
70015;BME280;57358;51.094;6.760;2023-08-08T03:46:49;100837.78;;;11.61;100.00
70015;BME280;57358;51.094;6.760;2023-08-08T03:49:17;100596.91;;;9.80;100.00
70015;BME280;57358;51.094;6.760;2023-08-08T03:51:45;100812.72;;;11.37;100.00
70015;BME280;57358;51.094;6.760;2023-08-08T03:54:11;100732.91;;;10.91;100.00
70015;BME280;57358;51.094;6.760;2023-08-08T03:56:37;100853.09;;;11.52;100.00
70015;BME280;57358;51.094;6.760;2023-08-08T03:59:04;100870.59;;;11.69;100.00
70015;BME280;57358;51.094;6.760;2023-08-08T04:01:30;100911.63;;;11.89;100.00
70015;BME280;57358;51.094;6.760;2023-08-08T04:03:57;100869.47;;;11.57;100.00
70015;BME280;57358;51.094;6.760;2023-08-08T04:06:23;100894.69;;;11.77;100.00
70015;BME280;57358;51.094;6.760;2023-08-08T04:08:50;100759.34;;;11.04;100.00
70015;BME280;57358;51.094;6.760;2023-08-08T04:11:16;100901.59;;;11.96;100.00
70015;BME280;57358;51.094;6.760;2023-08-08T04:13:43;100921.13;;;12.08;100.00
70015;BME280;57358;51.094;6.760;2023-08-08T04:16:09;100849.22;;;11.60;100.00
70015;BME280;57358;51.094;6.760;2023-08-08T04:18:36;100833.34;;;11.45;100.00
70015;BME280;57358;51.094;6.760;2023-08-08T04:21:02;100865.66;;;11.63;100.00
70015;BME280;57358;51.094;6.760;2023-08-08T04:23:28;100751.41;;;11.05;100.00
70015;BME280;57358;51.094;6.760;2023-08-08T04:25:55;100700.63;;;10.89;100.00
70015;BME280;57358;51.094;6.760;2023-08-08T04:28:21;100887.53;;;11.97;100.00
70015;BME280;57358;51.094;6.760;2023-08-08T04:30:48;100821.66;;;11.51;100.00
70015;BME280;57358;51.094;6.760;2023-08-08T04:33:14;100872.09;;;11.91;100.00
70015;BME280;57358;51.094;6.760;2023-08-08T04:35:41;100917.31;;;12.13;100.00
70015;BME280;57358;51.094;6.760;2023-08-08T04:38:08;100835.56;;;11.53;100.00
70015;BME280;57358;51.094;6.760;2023-08-08T04:40:34;100841.25;;;11.61;100.00
70015;BME280;57358;51.094;6.760;2023-08-08T04:43:06;100910.25;;;12.14;100.00
70015;BME280;57358;51.094;6.760;2023-08-08T04:45:32;100816.06;;;11.57;100.00
70015;BME280;57358;51.094;6.760;2023-08-08T04:48:02;100867.47;;;11.94;100.00
70015;BME280;57358;51.094;6.760;2023-08-08T04:50:28;100809.88;;;11.74;100.00
70015;BME280;57358;51.094;6.760;2023-08-08T04:52:55;100887.84;;;12.23;100.00
70015;BME280;57358;51.094;6.760;2023-08-08T04:55:21;100910.25;;;12.46;100.00
70015;BME280;57358;51.094;6.760;2023-08-08T04:57:48;100885.19;;;12.38;100.00
70015;BME280;57358;51.094;6.760;2023-08-08T05:00:14;100856.25;;;12.38;100.00
70015;BME280;57358;51.094;6.760;2023-08-08T05:02:41;100907.59;;;12.92;100.00
70015;BME280;57358;51.094;6.760;2023-08-08T05:05:08;100876.47;;;12.98;100.00
70015;BME280;57358;51.094;6.760;2023-08-08T05:07:35;100901.50;;;13.50;100.00
70015;BME280;57358;51.094;6.760;2023-08-08T05:10:04;100865.06;;;13.43;100.00
70015;BME280;57358;51.094;6.760;2023-08-08T05:12:31;100686.06;;;12.53;100.00
70015;BME280;57358;51.094;6.760;2023-08-08T05:14:57;100850.94;;;13.58;100.00
70015;BME280;57358;51.094;6.760;2023-08-08T05:17:23;100668.09;;;12.46;100.00
70015;BME280;57358;51.094;6.760;2023-08-08T05:19:50;100844.06;;;13.55;100.00
70015;BME280;57358;51.094;6.760;2023-08-08T05:22:17;100790.56;;;13.25;100.00
70015;BME280;57358;51.094;6.760;2023-08-08T05:24:43;100848.94;;;13.62;100.00
70015;BME280;57358;51.094;6.760;2023-08-08T05:27:10;100856.56;;;13.66;100.00
70015;BME280;57358;51.094;6.760;2023-08-08T05:29:37;100813.56;;;13.51;100.00
70015;BME280;57358;51.094;6.760;2023-08-08T05:32:05;100840.28;;;13.74;100.00
70015;BME280;57358;51.094;6.760;2023-08-08T05:34:33;100738.25;;;13.33;100.00
70015;BME280;57358;51.094;6.760;2023-08-08T05:37:00;100769.38;;;13.55;100.00
70015;BME280;57358;51.094;6.760;2023-08-08T05:39:41;100811.97;;;13.90;100.00
70015;BME280;57358;51.094;6.760;2023-08-08T05:42:08;100737.41;;;13.74;100.00
70015;BME280;57358;51.094;6.760;2023-08-08T05:44:34;100772.31;;;14.05;100.00
70015;BME280;57358;51.094;6.760;2023-08-08T05:47:01;100663.69;;;13.45;100.00
70015;BME280;57358;51.094;6.760;2023-08-08T05:49:27;100789.41;;;14.26;100.00
70015;BME280;57358;51.094;6.760;2023-08-08T05:51:54;100819.84;;;14.45;100.00
70015;BME280;57358;51.094;6.760;2023-08-08T05:54:20;100744.66;;;13.98;100.00
70015;BME280;57358;51.094;6.760;2023-08-08T05:56:46;100751.09;;;13.93;100.00
70015;BME280;57358;51.094;6.760;2023-08-08T05:59:13;100732.28;;;13.85;100.00
70015;BME280;57358;51.094;6.760;2023-08-08T06:01:39;100766.63;;;14.11;100.00
70015;BME280;57358;51.094;6.760;2023-08-08T06:04:06;100768.69;;;14.20;100.00
70015;BME280;57358;51.094;6.760;2023-08-08T06:06:32;100823.50;;;14.56;100.00
70015;BME280;57358;51.094;6.760;2023-08-08T06:08:59;100781.81;;;14.34;100.00
70015;BME280;57358;51.094;6.760;2023-08-08T06:11:25;100770.22;;;14.50;100.00
70015;BME280;57358;51.094;6.760;2023-08-08T06:13:52;100710.63;;;14.20;100.00
70015;BME280;57358;51.094;6.760;2023-08-08T06:16:18;100768.59;;;14.62;100.00
70015;BME280;57358;51.094;6.760;2023-08-08T06:18:45;100782.53;;;14.76;100.00
70015;BME280;57358;51.094;6.760;2023-08-08T06:21:11;100699.44;;;14.29;100.00
70015;BME280;57358;51.094;6.760;2023-08-08T06:23:37;100780.72;;;14.77;100.00
70015;BME280;57358;51.094;6.760;2023-08-08T06:26:04;100720.56;;;14.42;100.00
70015;BME280;57358;51.094;6.760;2023-08-08T06:28:31;100658.97;;;14.03;100.00
70015;BME280;57358;51.094;6.760;2023-08-08T06:30:58;100793.97;;;14.90;100.00
70015;BME280;57358;51.094;6.760;2023-08-08T06:33:24;100783.91;;;14.82;100.00
70015;BME280;57358;51.094;6.760;2023-08-08T06:35:51;100710.34;;;14.38;100.00
70015;BME280;57358;51.094;6.760;2023-08-08T06:38:17;100725.94;;;14.41;100.00
70015;BME280;57358;51.094;6.760;2023-08-08T06:40:44;100800.81;;;15.05;100.00
70015;BME280;57358;51.094;6.760;2023-08-08T06:43:10;100690.16;;;14.49;100.00
70015;BME280;57358;51.094;6.760;2023-08-08T06:45:37;100794.88;;;15.27;100.00
70015;BME280;57358;51.094;6.760;2023-08-08T06:48:04;100675.81;;;14.66;100.00
70015;BME280;57358;51.094;6.760;2023-08-08T06:50:31;100599.44;;;14.38;99.31
70015;BME280;57358;51.094;6.760;2023-08-08T06:52:57;100718.00;;;15.30;98.07
70015;BME280;57358;51.094;6.760;2023-08-08T06:55:24;100593.94;;;14.66;96.94
70015;BME280;57358;51.094;6.760;2023-08-08T06:57:50;100645.47;;;15.22;95.51
70015;BME280;57358;51.094;6.760;2023-08-08T07:00:17;100658.28;;;15.39;94.39
70015;BME280;57358;51.094;6.760;2023-08-08T07:02:43;100624.44;;;15.20;94.90
70015;BME280;57358;51.094;6.760;2023-08-08T07:05:10;100588.03;;;15.00;94.57
70015;BME280;57358;51.094;6.760;2023-08-08T07:07:36;100662.38;;;15.56;93.96
70015;BME280;57358;51.094;6.760;2023-08-08T07:10:07;100634.38;;;15.41;93.81
70015;BME280;57358;51.094;6.760;2023-08-08T07:12:33;100644.16;;;15.51;93.47
70015;BME280;57358;51.094;6.760;2023-08-08T07:15:00;100603.47;;;15.30;93.07
70015;BME280;57358;51.094;6.760;2023-08-08T07:17:26;100638.44;;;15.58;93.43
70015;BME280;57358;51.094;6.760;2023-08-08T07:19:53;100464.03;;;14.48;93.24
70015;BME280;57358;51.094;6.760;2023-08-08T07:22:19;100588.81;;;15.37;92.66
70015;BME280;57358;51.094;6.760;2023-08-08T07:24:46;100661.09;;;15.97;92.01
70015;BME280;57358;51.094;6.760;2023-08-08T07:27:13;100610.38;;;16.14;89.85
70015;BME280;57358;51.094;6.760;2023-08-08T07:29:39;100670.63;;;17.03;87.85
70015;BME280;57358;51.094;6.760;2023-08-08T07:32:05;100576.59;;;17.07;84.67
70015;BME280;57358;51.094;6.760;2023-08-08T07:34:32;100472.78;;;16.79;82.19
70015;BME280;57358;51.094;6.760;2023-08-08T07:36:59;100574.44;;;17.44;81.84
70015;BME280;57358;51.094;6.760;2023-08-08T07:39:26;100540.00;;;17.22;81.99
70015;BME280;57358;51.094;6.760;2023-08-08T07:41:52;100551.34;;;16.91;83.30
70015;BME280;57358;51.094;6.760;2023-08-08T07:44:19;100552.19;;;16.92;83.70
70015;BME280;57358;51.094;6.760;2023-08-08T07:46:45;100568.84;;;17.47;81.72
70015;BME280;57358;51.094;6.760;2023-08-08T07:49:13;100557.09;;;17.40;82.31
70015;BME280;57358;51.094;6.760;2023-08-08T07:51:39;100549.38;;;17.79;80.80
70015;BME280;57358;51.094;6.760;2023-08-08T07:54:05;100528.22;;;17.89;80.20
70015;BME280;57358;51.094;6.760;2023-08-08T07:56:35;100455.72;;;17.88;78.19
70015;BME280;57358;51.094;6.760;2023-08-08T07:59:02;100390.69;;;17.83;76.00
70015;BME280;57358;51.094;6.760;2023-08-08T08:01:29;100409.06;;;17.96;76.27
70015;BME280;57358;51.094;6.760;2023-08-08T08:03:56;100497.28;;;18.49;76.45
70015;BME280;57358;51.094;6.760;2023-08-08T08:06:23;100474.19;;;18.50;76.31
70015;BME280;57358;51.094;6.760;2023-08-08T08:08:49;100458.56;;;18.57;75.11
70015;BME280;57358;51.094;6.760;2023-08-08T08:11:16;100425.50;;;18.20;75.33
70015;BME280;57358;51.094;6.760;2023-08-08T08:13:43;100462.66;;;18.10;76.50
70015;BME280;57358;51.094;6.760;2023-08-08T08:16:09;100462.56;;;17.70;77.44
70015;BME280;57358;51.094;6.760;2023-08-08T08:18:36;100470.88;;;17.55;78.17
70015;BME280;57358;51.094;6.760;2023-08-08T08:21:02;100429.09;;;17.06;79.14
70015;BME280;57358;51.094;6.760;2023-08-08T08:23:29;100510.34;;;17.70;78.80
70015;BME280;57358;51.094;6.760;2023-08-08T08:25:58;100454.59;;;17.39;77.97
70015;BME280;57358;51.094;6.760;2023-08-08T08:28:25;100509.44;;;17.60;78.51
70015;BME280;57358;51.094;6.760;2023-08-08T08:30:52;100539.34;;;17.41;80.02
70015;BME280;57358;51.094;6.760;2023-08-08T08:33:19;100566.78;;;17.30;80.87
70015;BME280;57358;51.094;6.760;2023-08-08T08:35:46;100527.28;;;16.72;82.93
70015;BME280;57358;51.094;6.760;2023-08-08T08:38:13;100566.81;;;16.30;85.92
70015;BME280;57358;51.094;6.760;2023-08-08T08:40:41;100669.56;;;16.83;88.23
70015;BME280;57358;51.094;6.760;2023-08-08T08:43:09;100680.63;;;16.99;87.43
70015;BME280;57358;51.094;6.760;2023-08-08T08:45:38;100669.53;;;17.17;86.06
70015;BME280;57358;51.094;6.760;2023-08-08T08:48:09;100648.19;;;17.07;86.01
70015;BME280;57358;51.094;6.760;2023-08-08T08:50:39;100624.59;;;16.59;87.15
70015;BME280;57358;51.094;6.760;2023-08-08T08:53:06;100587.97;;;16.07;88.00
70015;BME280;57358;51.094;6.760;2023-08-08T08:55:33;100624.44;;;16.04;90.41
70015;BME280;57358;51.094;6.760;2023-08-08T08:57:59;100674.25;;;15.74;94.02
70015;BME280;57358;51.094;6.760;2023-08-08T09:00:26;100751.31;;;15.94;97.76
70015;BME280;57358;51.094;6.760;2023-08-08T09:02:54;100713.34;;;15.21;100.00
70015;BME280;57358;51.094;6.760;2023-08-08T09:05:25;100818.72;;;15.51;100.00
70015;BME280;57358;51.094;6.760;2023-08-08T09:07:52;100842.53;;;15.51;100.00
70015;BME280;57358;51.094;6.760;2023-08-08T09:10:19;100872.88;;;15.71;100.00
70015;BME280;57358;51.094;6.760;2023-08-08T09:12:46;100884.63;;;15.67;100.00
70015;BME280;57358;51.094;6.760;2023-08-08T09:15:13;100858.41;;;15.51;100.00
70015;BME280;57358;51.094;6.760;2023-08-08T09:17:41;100912.16;;;15.90;100.00
70015;BME280;57358;51.094;6.760;2023-08-08T09:20:15;100842.88;;;15.72;100.00
70015;BME280;57358;51.094;6.760;2023-08-08T09:22:43;100916.16;;;16.33;100.00
70015;BME280;57358;51.094;6.760;2023-08-08T09:25:09;100898.41;;;16.46;100.00
70015;BME280;57358;51.094;6.760;2023-08-08T09:27:35;100825.72;;;16.26;100.00
70015;BME280;57358;51.094;6.760;2023-08-08T09:30:02;100782.78;;;16.34;100.00
70015;BME280;57358;51.094;6.760;2023-08-08T09:32:32;100776.25;;;16.73;100.00
70015;BME280;57358;51.094;6.760;2023-08-08T09:34:59;100833.94;;;17.28;100.00
70015;BME280;57358;51.094;6.760;2023-08-08T09:37:27;100853.25;;;17.52;100.00
70015;BME280;57358;51.094;6.760;2023-08-08T09:39:59;100830.69;;;17.58;100.00
70015;BME280;57358;51.094;6.760;2023-08-08T09:42:26;100843.06;;;17.91;100.00
70015;BME280;57358;51.094;6.760;2023-08-08T09:44:54;100836.88;;;18.13;99.56
70015;BME280;57358;51.094;6.760;2023-08-08T09:47:22;100725.81;;;17.86;96.89
70015;BME280;57358;51.094;6.760;2023-08-08T09:49:49;100702.13;;;17.94;94.19
70015;BME280;57358;51.094;6.760;2023-08-08T09:52:16;100798.75;;;18.78;93.84
70015;BME280;57358;51.094;6.760;2023-08-08T09:54:43;100702.28;;;18.87;88.38
70015;BME280;57358;51.094;6.760;2023-08-08T09:57:09;100647.56;;;18.94;86.08
70015;BME280;57358;51.094;6.760;2023-08-08T09:59:36;100620.25;;;18.92;84.13
70015;BME280;57358;51.094;6.760;2023-08-08T10:02:04;100653.16;;;18.91;85.63
70015;BME280;57358;51.094;6.760;2023-08-08T10:04:31;100622.16;;;18.70;85.80
70015;BME280;57358;51.094;6.760;2023-08-08T10:06:59;100539.03;;;18.28;84.61
70015;BME280;57358;51.094;6.760;2023-08-08T10:09:26;100595.94;;;18.25;86.41
70015;BME280;57358;51.094;6.760;2023-08-08T10:11:54;100608.78;;;18.20;85.79
70015;BME280;57358;51.094;6.760;2023-08-08T10:14:28;100584.41;;;17.94;85.63
70015;BME280;57358;51.094;6.760;2023-08-08T10:16:55;100585.47;;;17.49;88.31
70015;BME280;57358;51.094;6.760;2023-08-08T10:19:23;100623.59;;;17.81;87.12
70015;BME280;57358;51.094;6.760;2023-08-08T10:22:05;100652.91;;;17.79;88.46
70015;BME280;57358;51.094;6.760;2023-08-08T10:24:35;100676.78;;;17.90;88.74
70015;BME280;57358;51.094;6.760;2023-08-08T10:27:03;100547.31;;;17.08;87.65
70015;BME280;57358;51.094;6.760;2023-08-08T10:29:32;100636.78;;;17.71;87.54
70015;BME280;57358;51.094;6.760;2023-08-08T10:32:04;100619.13;;;17.49;88.02
70015;BME280;57358;51.094;6.760;2023-08-08T10:34:44;100632.72;;;17.55;87.85
70015;BME280;57358;51.094;6.760;2023-08-08T10:37:14;100567.69;;;17.08;88.01
70015;BME280;57358;51.094;6.760;2023-08-08T10:42:20;100565.03;;;17.08;87.96
70015;BME280;57358;51.094;6.760;2023-08-08T10:44:54;100665.69;;;17.85;87.44
70015;BME280;57358;51.094;6.760;2023-08-08T10:47:23;100630.16;;;17.98;86.28
70015;BME280;57358;51.094;6.760;2023-08-08T10:50:08;100657.50;;;18.30;86.13
70015;BME280;57358;51.094;6.760;2023-08-08T10:52:49;100544.88;;;18.22;82.43
70015;BME280;57358;51.094;6.760;2023-08-08T10:55:20;100567.50;;;18.47;81.87
70015;BME280;57358;51.094;6.760;2023-08-08T10:58:19;100529.22;;;18.59;79.94
70015;BME280;57358;51.094;6.760;2023-08-08T11:00:47;100431.28;;;18.54;77.38
70015;BME280;57358;51.094;6.760;2023-08-08T11:03:15;100444.75;;;19.02;75.05
70015;BME280;57358;51.094;6.760;2023-08-08T11:05:41;100259.97;;;18.29;73.25
70015;BME280;57358;51.094;6.760;2023-08-08T11:08:12;100345.13;;;18.77;73.22
70015;BME280;57358;51.094;6.760;2023-08-08T11:10:39;100418.47;;;18.99;74.49
70015;BME280;57358;51.094;6.760;2023-08-08T11:13:07;100307.34;;;18.63;72.66
70015;BME280;57358;51.094;6.760;2023-08-08T11:15:36;100414.22;;;19.16;73.26
70015;BME280;57358;51.094;6.760;2023-08-08T11:18:03;100398.56;;;19.03;71.99
70015;BME280;57358;51.094;6.760;2023-08-08T11:20:35;100352.09;;;18.78;72.02
70015;BME280;57358;51.094;6.760;2023-08-08T11:23:02;100374.34;;;18.77;72.39
70015;BME280;57358;51.094;6.760;2023-08-08T11:25:32;100320.38;;;18.47;71.40
70015;BME280;57358;51.094;6.760;2023-08-08T11:27:58;100286.13;;;18.14;71.47
70015;BME280;57358;51.094;6.760;2023-08-08T11:30:29;100356.03;;;18.64;71.38
70015;BME280;57358;51.094;6.760;2023-08-08T11:32:56;100296.44;;;17.88;72.62
70015;BME280;57358;51.094;6.760;2023-08-08T11:35:26;100353.44;;;17.94;73.53
70015;BME280;57358;51.094;6.760;2023-08-08T11:37:56;100386.47;;;18.11;73.58
70015;BME280;57358;51.094;6.760;2023-08-08T11:40:25;100382.25;;;17.68;75.16
70015;BME280;57358;51.094;6.760;2023-08-08T11:42:53;100451.91;;;17.60;76.74
70015;BME280;57358;51.094;6.760;2023-08-08T11:45:20;100545.50;;;17.62;78.94
70015;BME280;57358;51.094;6.760;2023-08-08T11:47:51;100515.44;;;17.20;81.35
70015;BME280;57358;51.094;6.760;2023-08-08T11:50:21;100548.31;;;17.28;81.73
70015;BME280;57358;51.094;6.760;2023-08-08T11:52:52;100596.09;;;17.49;82.39
70015;BME280;57358;51.094;6.760;2023-08-08T11:55:29;100597.19;;;17.14;84.34
70015;BME280;57358;51.094;6.760;2023-08-08T11:57:56;100597.72;;;16.63;87.04
70015;BME280;57358;51.094;6.760;2023-08-08T12:00:27;100669.44;;;16.84;88.88
70015;BME280;57358;51.094;6.760;2023-08-08T12:02:54;100705.91;;;16.81;91.15
70015;BME280;57358;51.094;6.760;2023-08-08T12:05:21;100645.78;;;16.36;91.66
70015;BME280;57358;51.094;6.760;2023-08-08T12:07:48;100586.28;;;15.71;93.95
70015;BME280;57358;51.094;6.760;2023-08-08T12:10:18;100753.06;;;16.42;96.84
70015;BME280;57358;51.094;6.760;2023-08-08T12:12:46;100758.22;;;16.43;97.39
70015;BME280;57358;51.094;6.760;2023-08-08T12:15:13;100673.16;;;15.77;97.78
70015;BME280;57358;51.094;6.760;2023-08-08T12:17:42;100748.88;;;16.15;98.96
70015;BME280;57358;51.094;6.760;2023-08-08T12:20:09;100799.63;;;16.33;100.00
70015;BME280;57358;51.094;6.760;2023-08-08T12:22:36;100669.56;;;15.54;100.00
70015;BME280;57358;51.094;6.760;2023-08-08T12:25:03;100801.81;;;16.15;100.00
70015;BME280;57358;51.094;6.760;2023-08-08T12:27:30;100777.75;;;15.70;100.00
70015;BME280;57358;51.094;6.760;2023-08-08T12:29:57;100804.75;;;15.75;100.00
70015;BME280;57358;51.094;6.760;2023-08-08T12:32:26;100839.00;;;15.89;100.00
70015;BME280;57358;51.094;6.760;2023-08-08T12:34:55;100825.44;;;15.94;100.00
70015;BME280;57358;51.094;6.760;2023-08-08T12:37:23;100833.59;;;16.15;100.00
70015;BME280;57358;51.094;6.760;2023-08-08T12:39:50;100720.09;;;15.62;100.00
70015;BME280;57358;51.094;6.760;2023-08-08T12:42:17;100704.91;;;15.77;100.00
70015;BME280;57358;51.094;6.760;2023-08-08T12:44:43;100710.09;;;16.03;100.00
70015;BME280;57358;51.094;6.760;2023-08-08T12:47:11;100822.59;;;17.03;100.00
70015;BME280;57358;51.094;6.760;2023-08-08T12:49:40;100797.66;;;17.17;98.61